sensor_id;sensor_type;location;lat;lon;timestamp;P1;durP1;ratioP1;P2;durP2;ratioP2
12367;SDS011;6248;49.812;6.620;2024-03-23T00:53:43;9.53;;;7.40;;
12367;SDS011;6248;49.812;6.620;2024-03-23T00:56:09;8.67;;;7.07;;
12367;SDS011;6248;49.812;6.620;2024-03-23T00:58:36;9.63;;;7.47;;
12367;SDS011;6248;49.812;6.620;2024-03-23T01:01:02;7.77;;;6.97;;
12367;SDS011;6248;49.812;6.620;2024-03-23T01:03:29;9.20;;;6.80;;
12367;SDS011;6248;49.812;6.620;2024-03-23T01:05:58;8.70;;;7.37;;
12367;SDS011;6248;49.812;6.620;2024-03-23T01:08:25;9.10;;;8.20;;
12367;SDS011;6248;49.812;6.620;2024-03-23T01:10:56;7.93;;;7.10;;
12367;SDS011;6248;49.812;6.620;2024-03-23T01:13:24;8.50;;;7.70;;
12367;SDS011;6248;49.812;6.620;2024-03-23T01:15:50;9.27;;;8.03;;
12367;SDS011;6248;49.812;6.620;2024-03-23T01:18:17;9.73;;;8.27;;
12367;SDS011;6248;49.812;6.620;2024-03-23T01:20:44;9.90;;;8.90;;
12367;SDS011;6248;49.812;6.620;2024-03-23T01:23:11;10.63;;;9.50;;
12367;SDS011;6248;49.812;6.620;2024-03-23T01:25:37;10.20;;;8.97;;
12367;SDS011;6248;49.812;6.620;2024-03-23T01:28:05;10.80;;;9.80;;
12367;SDS011;6248;49.812;6.620;2024-03-23T01:30:32;13.33;;;10.77;;
12367;SDS011;6248;49.812;6.620;2024-03-23T01:32:59;12.83;;;9.83;;
12367;SDS011;6248;49.812;6.620;2024-03-23T01:35:26;12.50;;;10.50;;
12367;SDS011;6248;49.812;6.620;2024-03-23T01:37:53;10.77;;;9.67;;
12367;SDS011;6248;49.812;6.620;2024-03-23T01:40:19;11.60;;;9.00;;
12367;SDS011;6248;49.812;6.620;2024-03-23T01:42:54;10.20;;;9.20;;
12367;SDS011;6248;49.812;6.620;2024-03-23T01:45:22;8.70;;;7.80;;
12367;SDS011;6248;49.812;6.620;2024-03-23T01:47:49;9.83;;;8.30;;
12367;SDS011;6248;49.812;6.620;2024-03-23T01:50:15;10.30;;;8.87;;
12367;SDS011;6248;49.812;6.620;2024-03-23T01:52:43;10.13;;;8.17;;
12367;SDS011;6248;49.812;6.620;2024-03-23T01:55:09;9.70;;;8.33;;
12367;SDS011;6248;49.812;6.620;2024-03-23T01:57:37;10.23;;;7.97;;
12367;SDS011;6248;49.812;6.620;2024-03-23T02:00:03;8.93;;;7.63;;
12367;SDS011;6248;49.812;6.620;2024-03-23T02:02:32;10.03;;;7.47;;
12367;SDS011;6248;49.812;6.620;2024-03-23T02:04:58;8.53;;;7.67;;
12367;SDS011;6248;49.812;6.620;2024-03-23T02:07:26;9.03;;;8.13;;
12367;SDS011;6248;49.812;6.620;2024-03-23T02:09:52;8.73;;;7.83;;
12367;SDS011;6248;49.812;6.620;2024-03-23T02:12:20;6.50;;;5.57;;
12367;SDS011;6248;49.812;6.620;2024-03-23T02:14:46;4.20;;;3.80;;
12367;SDS011;6248;49.812;6.620;2024-03-23T02:17:13;3.33;;;3.00;;
12367;SDS011;6248;49.812;6.620;2024-03-23T02:19:41;2.63;;;1.70;;
12367;SDS011;6248;49.812;6.620;2024-03-23T02:22:08;1.80;;;1.70;;
12367;SDS011;6248;49.812;6.620;2024-03-23T02:24:37;1.70;;;1.60;;
12367;SDS011;6248;49.812;6.620;2024-03-23T02:27:04;1.53;;;1.30;;
12367;SDS011;6248;49.812;6.620;2024-03-23T02:29:30;1.53;;;1.30;;
12367;SDS011;6248;49.812;6.620;2024-03-23T02:31:57;1.30;;;1.20;;
12367;SDS011;6248;49.812;6.620;2024-03-23T02:34:24;1.30;;;1.30;;
12367;SDS011;6248;49.812;6.620;2024-03-23T02:36:51;1.70;;;1.20;;
12367;SDS011;6248;49.812;6.620;2024-03-23T02:39:17;1.40;;;1.30;;
12367;SDS011;6248;49.812;6.620;2024-03-23T02:41:45;1.40;;;1.30;;
12367;SDS011;6248;49.812;6.620;2024-03-23T02:44:13;1.43;;;1.00;;
12367;SDS011;6248;49.812;6.620;2024-03-23T02:46:40;1.30;;;1.20;;
12367;SDS011;6248;49.812;6.620;2024-03-23T02:49:07;1.00;;;1.00;;
12367;SDS011;6248;49.812;6.620;2024-03-23T02:51:33;1.23;;;1.20;;
12367;SDS011;6248;49.812;6.620;2024-03-23T02:54:00;1.20;;;1.10;;
12367;SDS011;6248;49.812;6.620;2024-03-23T02:56:26;0.90;;;0.90;;
12367;SDS011;6248;49.812;6.620;2024-03-23T02:58:55;1.00;;;1.00;;
12367;SDS011;6248;49.812;6.620;2024-03-23T03:01:21;1.00;;;1.00;;
12367;SDS011;6248;49.812;6.620;2024-03-23T03:03:48;0.93;;;0.93;;
12367;SDS011;6248;49.812;6.620;2024-03-23T03:06:22;1.10;;;1.10;;
12367;SDS011;6248;49.812;6.620;2024-03-23T03:08:49;0.80;;;0.80;;
12367;SDS011;6248;49.812;6.620;2024-03-23T03:11:15;0.90;;;0.90;;
12367;SDS011;6248;49.812;6.620;2024-03-23T03:13:42;0.70;;;0.70;;
12367;SDS011;6248;49.812;6.620;2024-03-23T03:16:10;0.63;;;0.63;;
12367;SDS011;6248;49.812;6.620;2024-03-23T03:18:37;0.70;;;0.70;;
12367;SDS011;6248;49.812;6.620;2024-03-23T03:21:05;0.93;;;0.90;;
12367;SDS011;6248;49.812;6.620;2024-03-23T03:23:36;0.70;;;0.70;;
12367;SDS011;6248;49.812;6.620;2024-03-23T03:26:02;0.60;;;0.60;;
12367;SDS011;6248;49.812;6.620;2024-03-23T03:28:29;0.80;;;0.80;;
12367;SDS011;6248;49.812;6.620;2024-03-23T03:30:56;0.80;;;0.80;;
12367;SDS011;6248;49.812;6.620;2024-03-23T03:33:24;0.67;;;0.67;;
12367;SDS011;6248;49.812;6.620;2024-03-23T03:35:50;0.70;;;0.70;;
12367;SDS011;6248;49.812;6.620;2024-03-23T03:38:18;1.00;;;0.90;;
12367;SDS011;6248;49.812;6.620;2024-03-23T03:40:44;0.63;;;0.63;;
12367;SDS011;6248;49.812;6.620;2024-03-23T03:43:11;0.80;;;0.80;;
12367;SDS011;6248;49.812;6.620;2024-03-23T03:45:37;0.90;;;0.90;;
12367;SDS011;6248;49.812;6.620;2024-03-23T03:48:05;0.60;;;0.60;;
12367;SDS011;6248;49.812;6.620;2024-03-23T03:50:32;0.60;;;0.60;;
12367;SDS011;6248;49.812;6.620;2024-03-23T03:52:59;0.80;;;0.80;;
12367;SDS011;6248;49.812;6.620;2024-03-23T03:55:26;0.53;;;0.53;;
12367;SDS011;6248;49.812;6.620;2024-03-23T03:57:53;0.50;;;0.50;;
12367;SDS011;6248;49.812;6.620;2024-03-23T04:00:19;0.80;;;0.80;;
12367;SDS011;6248;49.812;6.620;2024-03-23T04:02:46;1.00;;;0.80;;
12367;SDS011;6248;49.812;6.620;2024-03-23T04:05:12;1.13;;;0.80;;
12367;SDS011;6248;49.812;6.620;2024-03-23T04:07:41;0.70;;;0.70;;
12367;SDS011;6248;49.812;6.620;2024-03-23T04:10:07;0.93;;;0.90;;
12367;SDS011;6248;49.812;6.620;2024-03-23T04:12:35;0.70;;;0.70;;
12367;SDS011;6248;49.812;6.620;2024-03-23T04:15:01;0.70;;;0.70;;
12367;SDS011;6248;49.812;6.620;2024-03-23T04:17:30;0.77;;;0.77;;
12367;SDS011;6248;49.812;6.620;2024-03-23T04:19:57;0.80;;;0.80;;
12367;SDS011;6248;49.812;6.620;2024-03-23T04:22:24;0.80;;;0.80;;
12367;SDS011;6248;49.812;6.620;2024-03-23T04:24:52;0.63;;;0.63;;
12367;SDS011;6248;49.812;6.620;2024-03-23T04:27:20;0.70;;;0.70;;
12367;SDS011;6248;49.812;6.620;2024-03-23T04:29:46;0.67;;;0.67;;
12367;SDS011;6248;49.812;6.620;2024-03-23T04:32:14;0.70;;;0.70;;
12367;SDS011;6248;49.812;6.620;2024-03-23T04:34:41;0.87;;;0.87;;
12367;SDS011;6248;49.812;6.620;2024-03-23T04:37:08;0.70;;;0.70;;
12367;SDS011;6248;49.812;6.620;2024-03-23T04:39:35;1.13;;;0.60;;
12367;SDS011;6248;49.812;6.620;2024-03-23T04:42:04;0.50;;;0.50;;
12367;SDS011;6248;49.812;6.620;2024-03-23T04:44:31;0.80;;;0.50;;
12367;SDS011;6248;49.812;6.620;2024-03-23T04:46:59;0.60;;;0.60;;
12367;SDS011;6248;49.812;6.620;2024-03-23T04:49:27;0.80;;;0.80;;
12367;SDS011;6248;49.812;6.620;2024-03-23T04:51:54;0.60;;;0.60;;
12367;SDS011;6248;49.812;6.620;2024-03-23T04:54:21;0.83;;;0.63;;
12367;SDS011;6248;49.812;6.620;2024-03-23T04:56:47;2.07;;;1.03;;
12367;SDS011;6248;49.812;6.620;2024-03-23T04:59:15;1.10;;;1.00;;
12367;SDS011;6248;49.812;6.620;2024-03-23T05:01:41;0.80;;;0.70;;
12367;SDS011;6248;49.812;6.620;2024-03-23T05:04:09;1.20;;;0.80;;
12367;SDS011;6248;49.812;6.620;2024-03-23T05:06:35;1.47;;;1.00;;
12367;SDS011;6248;49.812;6.620;2024-03-23T05:09:02;0.70;;;0.70;;
12367;SDS011;6248;49.812;6.620;2024-03-23T05:11:31;0.90;;;0.80;;
12367;SDS011;6248;49.812;6.620;2024-03-23T05:13:58;1.07;;;0.80;;
12367;SDS011;6248;49.812;6.620;2024-03-23T05:16:26;1.73;;;0.90;;
12367;SDS011;6248;49.812;6.620;2024-03-23T05:18:53;0.83;;;0.80;;
12367;SDS011;6248;49.812;6.620;2024-03-23T05:21:19;1.03;;;0.77;;
12367;SDS011;6248;49.812;6.620;2024-03-23T05:23:46;1.67;;;1.20;;
12367;SDS011;6248;49.812;6.620;2024-03-23T05:26:12;1.23;;;1.00;;
12367;SDS011;6248;49.812;6.620;2024-03-23T05:28:40;2.80;;;1.10;;
12367;SDS011;6248;49.812;6.620;2024-03-23T05:31:06;2.63;;;1.20;;
12367;SDS011;6248;49.812;6.620;2024-03-23T05:33:35;1.87;;;1.10;;
12367;SDS011;6248;49.812;6.620;2024-03-23T05:36:03;2.07;;;1.30;;
12367;SDS011;6248;49.812;6.620;2024-03-23T05:38:31;1.73;;;1.10;;
12367;SDS011;6248;49.812;6.620;2024-03-23T05:40:57;1.70;;;1.10;;
12367;SDS011;6248;49.812;6.620;2024-03-23T05:43:25;2.20;;;1.27;;
12367;SDS011;6248;49.812;6.620;2024-03-23T05:45:54;3.37;;;1.40;;
12367;SDS011;6248;49.812;6.620;2024-03-23T05:48:21;3.53;;;1.40;;
12367;SDS011;6248;49.812;6.620;2024-03-23T05:50:49;3.40;;;1.40;;
12367;SDS011;6248;49.812;6.620;2024-03-23T05:53:16;3.47;;;1.50;;
12367;SDS011;6248;49.812;6.620;2024-03-23T05:55:43;4.80;;;2.03;;
12367;SDS011;6248;49.812;6.620;2024-03-23T05:58:10;2.93;;;1.30;;
12367;SDS011;6248;49.812;6.620;2024-03-23T06:00:36;4.97;;;1.93;;
12367;SDS011;6248;49.812;6.620;2024-03-23T06:03:03;2.63;;;1.60;;
12367;SDS011;6248;49.812;6.620;2024-03-23T06:05:29;6.80;;;2.60;;
12367;SDS011;6248;49.812;6.620;2024-03-23T06:07:58;7.17;;;2.73;;
12367;SDS011;6248;49.812;6.620;2024-03-23T06:10:24;2.40;;;1.97;;
12367;SDS011;6248;49.812;6.620;2024-03-23T06:12:51;4.40;;;2.37;;
12367;SDS011;6248;49.812;6.620;2024-03-23T06:15:18;2.93;;;2.10;;
12367;SDS011;6248;49.812;6.620;2024-03-23T06:17:45;4.63;;;2.37;;
12367;SDS011;6248;49.812;6.620;2024-03-23T06:20:11;5.87;;;2.90;;
12367;SDS011;6248;49.812;6.620;2024-03-23T06:22:39;5.10;;;2.83;;
12367;SDS011;6248;49.812;6.620;2024-03-23T06:25:07;3.83;;;2.37;;
12367;SDS011;6248;49.812;6.620;2024-03-23T06:27:34;7.20;;;3.23;;
12367;SDS011;6248;49.812;6.620;2024-03-23T06:30:00;6.87;;;2.90;;
12367;SDS011;6248;49.812;6.620;2024-03-23T06:32:28;5.80;;;3.27;;
12367;SDS011;6248;49.812;6.620;2024-03-23T06:34:54;7.87;;;3.10;;
12367;SDS011;6248;49.812;6.620;2024-03-23T06:37:21;5.30;;;3.20;;
12367;SDS011;6248;49.812;6.620;2024-03-23T06:39:47;11.03;;;3.50;;
12367;SDS011;6248;49.812;6.620;2024-03-23T06:42:16;6.13;;;3.10;;
12367;SDS011;6248;49.812;6.620;2024-03-23T06:44:43;9.17;;;4.00;;
12367;SDS011;6248;49.812;6.620;2024-03-23T06:47:11;10.03;;;3.90;;
12367;SDS011;6248;49.812;6.620;2024-03-23T06:49:37;8.93;;;3.93;;
12367;SDS011;6248;49.812;6.620;2024-03-23T06:52:04;7.50;;;3.87;;
12367;SDS011;6248;49.812;6.620;2024-03-23T06:54:30;7.63;;;4.37;;
12367;SDS011;6248;49.812;6.620;2024-03-23T06:56:57;9.17;;;4.33;;
12367;SDS011;6248;49.812;6.620;2024-03-23T06:59:25;8.30;;;4.37;;
12367;SDS011;6248;49.812;6.620;2024-03-23T07:01:52;9.77;;;4.03;;
12367;SDS011;6248;49.812;6.620;2024-03-23T07:04:19;9.07;;;3.87;;
12367;SDS011;6248;49.812;6.620;2024-03-23T07:06:46;7.30;;;4.13;;
12367;SDS011;6248;49.812;6.620;2024-03-23T07:09:12;8.47;;;4.30;;
12367;SDS011;6248;49.812;6.620;2024-03-23T07:11:39;9.50;;;4.30;;
12367;SDS011;6248;49.812;6.620;2024-03-23T07:14:05;8.27;;;4.30;;
12367;SDS011;6248;49.812;6.620;2024-03-23T07:16:34;9.63;;;4.23;;
12367;SDS011;6248;49.812;6.620;2024-03-23T07:19:00;10.17;;;4.67;;
12367;SDS011;6248;49.812;6.620;2024-03-23T07:21:27;10.40;;;4.83;;
12367;SDS011;6248;49.812;6.620;2024-03-23T07:23:53;11.17;;;5.10;;
12367;SDS011;6248;49.812;6.620;2024-03-23T07:26:20;11.70;;;5.20;;
12367;SDS011;6248;49.812;6.620;2024-03-23T07:28:47;9.53;;;5.27;;
12367;SDS011;6248;49.812;6.620;2024-03-23T07:31:14;8.97;;;5.13;;
12367;SDS011;6248;49.812;6.620;2024-03-23T07:33:43;9.77;;;5.27;;
12367;SDS011;6248;49.812;6.620;2024-03-23T07:36:09;11.90;;;5.30;;
12367;SDS011;6248;49.812;6.620;2024-03-23T07:38:37;11.77;;;5.37;;
12367;SDS011;6248;49.812;6.620;2024-03-23T07:43:33;10.60;;;5.27;;
12367;SDS011;6248;49.812;6.620;2024-03-23T07:46:00;12.43;;;5.33;;
12367;SDS011;6248;49.812;6.620;2024-03-23T07:48:28;7.63;;;4.73;;
12367;SDS011;6248;49.812;6.620;2024-03-23T07:50:58;11.10;;;5.60;;
12367;SDS011;6248;49.812;6.620;2024-03-23T07:53:25;11.53;;;5.40;;
12367;SDS011;6248;49.812;6.620;2024-03-23T07:55:53;12.23;;;5.73;;
12367;SDS011;6248;49.812;6.620;2024-03-23T07:58:20;11.83;;;5.87;;
12367;SDS011;6248;49.812;6.620;2024-03-23T08:00:47;9.40;;;5.20;;
12367;SDS011;6248;49.812;6.620;2024-03-23T08:03:13;13.97;;;5.63;;
12367;SDS011;6248;49.812;6.620;2024-03-23T08:05:41;10.60;;;5.53;;
12367;SDS011;6248;49.812;6.620;2024-03-23T08:08:10;9.33;;;5.83;;
12367;SDS011;6248;49.812;6.620;2024-03-23T08:10:36;10.53;;;5.87;;
12367;SDS011;6248;49.812;6.620;2024-03-23T08:13:04;11.13;;;5.97;;
12367;SDS011;6248;49.812;6.620;2024-03-23T08:15:31;12.20;;;6.13;;
12367;SDS011;6248;49.812;6.620;2024-03-23T08:17:59;10.33;;;5.70;;
12367;SDS011;6248;49.812;6.620;2024-03-23T08:20:26;9.10;;;5.80;;
12367;SDS011;6248;49.812;6.620;2024-03-23T08:22:53;13.20;;;6.97;;
12367;SDS011;6248;49.812;6.620;2024-03-23T08:25:21;12.13;;;6.37;;
12367;SDS011;6248;49.812;6.620;2024-03-23T08:27:48;9.77;;;6.57;;
12367;SDS011;6248;49.812;6.620;2024-03-23T08:30:17;12.03;;;7.07;;
12367;SDS011;6248;49.812;6.620;2024-03-23T08:32:51;9.60;;;6.23;;
12367;SDS011;6248;49.812;6.620;2024-03-23T08:35:17;11.23;;;6.30;;
12367;SDS011;6248;49.812;6.620;2024-03-23T08:37:45;12.20;;;6.27;;
12367;SDS011;6248;49.812;6.620;2024-03-23T08:40:11;12.50;;;6.83;;
12367;SDS011;6248;49.812;6.620;2024-03-23T08:42:41;13.43;;;6.60;;
12367;SDS011;6248;49.812;6.620;2024-03-23T08:45:07;11.60;;;6.03;;
12367;SDS011;6248;49.812;6.620;2024-03-23T08:47:37;11.90;;;6.47;;
12367;SDS011;6248;49.812;6.620;2024-03-23T08:50:04;8.10;;;5.30;;
12367;SDS011;6248;49.812;6.620;2024-03-23T08:52:31;11.07;;;6.00;;
12367;SDS011;6248;49.812;6.620;2024-03-23T08:54:57;7.63;;;5.30;;
12367;SDS011;6248;49.812;6.620;2024-03-23T08:57:25;9.20;;;4.83;;
12367;SDS011;6248;49.812;6.620;2024-03-23T08:59:52;8.70;;;5.10;;
12367;SDS011;6248;49.812;6.620;2024-03-23T09:02:20;10.13;;;5.43;;
12367;SDS011;6248;49.812;6.620;2024-03-23T09:04:46;12.23;;;4.43;;
12367;SDS011;6248;49.812;6.620;2024-03-23T09:07:13;9.53;;;4.80;;
12367;SDS011;6248;49.812;6.620;2024-03-23T09:09:40;7.93;;;3.97;;
12367;SDS011;6248;49.812;6.620;2024-03-23T09:12:07;8.77;;;3.97;;
12367;SDS011;6248;49.812;6.620;2024-03-23T09:14:33;7.63;;;3.97;;
12367;SDS011;6248;49.812;6.620;2024-03-23T09:17:02;6.33;;;3.77;;
12367;SDS011;6248;49.812;6.620;2024-03-23T09:19:29;9.73;;;3.97;;
12367;SDS011;6248;49.812;6.620;2024-03-23T09:21:56;6.97;;;3.53;;
12367;SDS011;6248;49.812;6.620;2024-03-23T09:24:22;6.60;;;3.33;;
12367;SDS011;6248;49.812;6.620;2024-03-23T09:26:53;9.20;;;3.80;;
12367;SDS011;6248;49.812;6.620;2024-03-23T09:29:19;9.40;;;4.00;;
12367;SDS011;6248;49.812;6.620;2024-03-23T09:31:47;5.77;;;3.30;;
12367;SDS011;6248;49.812;6.620;2024-03-23T09:34:14;9.10;;;3.53;;
12367;SDS011;6248;49.812;6.620;2024-03-23T09:36:42;11.53;;;3.70;;
12367;SDS011;6248;49.812;6.620;2024-03-23T09:39:09;9.67;;;3.70;;
12367;SDS011;6248;49.812;6.620;2024-03-23T09:41:35;7.53;;;3.00;;
12367;SDS011;6248;49.812;6.620;2024-03-23T09:44:02;8.57;;;3.30;;
12367;SDS011;6248;49.812;6.620;2024-03-23T09:46:29;10.97;;;3.33;;
12367;SDS011;6248;49.812;6.620;2024-03-23T09:48:59;6.17;;;3.20;;
12367;SDS011;6248;49.812;6.620;2024-03-23T09:51:27;6.97;;;3.37;;
12367;SDS011;6248;49.812;6.620;2024-03-23T09:53:55;9.17;;;3.63;;
12367;SDS011;6248;49.812;6.620;2024-03-23T09:56:21;7.70;;;3.33;;
12367;SDS011;6248;49.812;6.620;2024-03-23T09:58:49;7.07;;;3.83;;
12367;SDS011;6248;49.812;6.620;2024-03-23T10:01:15;8.90;;;3.80;;
12367;SDS011;6248;49.812;6.620;2024-03-23T10:03:43;10.73;;;3.80;;
12367;SDS011;6248;49.812;6.620;2024-03-23T10:06:09;8.57;;;3.50;;
12367;SDS011;6248;49.812;6.620;2024-03-23T10:08:38;7.63;;;4.37;;
12367;SDS011;6248;49.812;6.620;2024-03-23T10:11:16;7.27;;;3.40;;
12367;SDS011;6248;49.812;6.620;2024-03-23T10:13:44;7.83;;;3.10;;
12367;SDS011;6248;49.812;6.620;2024-03-23T10:16:11;7.53;;;2.83;;
12367;SDS011;6248;49.812;6.620;2024-03-23T10:18:39;5.63;;;2.70;;
12367;SDS011;6248;49.812;6.620;2024-03-23T10:21:06;9.67;;;3.53;;
12367;SDS011;6248;49.812;6.620;2024-03-23T10:23:36;8.40;;;2.60;;
12367;SDS011;6248;49.812;6.620;2024-03-23T10:28:53;5.77;;;2.10;;
12367;SDS011;6248;49.812;6.620;2024-03-23T10:31:20;6.13;;;1.97;;
12367;SDS011;6248;49.812;6.620;2024-03-23T10:33:47;4.30;;;1.70;;
12367;SDS011;6248;49.812;6.620;2024-03-23T10:36:14;6.53;;;2.00;;
12367;SDS011;6248;49.812;6.620;2024-03-23T10:38:42;5.50;;;2.10;;
12367;SDS011;6248;49.812;6.620;2024-03-23T10:41:09;4.10;;;2.20;;
12367;SDS011;6248;49.812;6.620;2024-03-23T10:43:37;6.57;;;2.53;;
12367;SDS011;6248;49.812;6.620;2024-03-23T10:46:05;4.60;;;2.23;;
12367;SDS011;6248;49.812;6.620;2024-03-23T10:48:33;11.83;;;2.60;;
12367;SDS011;6248;49.812;6.620;2024-03-23T11:58:54;2.07;;;0.93;;
12367;SDS011;6248;49.812;6.620;2024-03-23T12:01:21;4.83;;;1.23;;
12367;SDS011;6248;49.812;6.620;2024-03-23T12:03:47;1.57;;;0.90;;
12367;SDS011;6248;49.812;6.620;2024-03-23T12:09:18;2.17;;;1.10;;
12367;SDS011;6248;49.812;6.620;2024-03-23T12:11:45;2.87;;;0.90;;
12367;SDS011;6248;49.812;6.620;2024-03-23T12:14:14;4.87;;;1.27;;
12367;SDS011;6248;49.812;6.620;2024-03-23T12:16:41;1.50;;;0.90;;
12367;SDS011;6248;49.812;6.620;2024-03-23T12:22:11;3.27;;;1.10;;
12367;SDS011;6248;49.812;6.620;2024-03-23T12:24:38;2.20;;;1.20;;
12367;SDS011;6248;49.812;6.620;2024-03-23T12:27:10;2.60;;;0.90;;
12367;SDS011;6248;49.812;6.620;2024-03-23T12:29:38;2.57;;;0.80;;
12367;SDS011;6248;49.812;6.620;2024-03-23T12:32:06;2.70;;;0.97;;
12367;SDS011;6248;49.812;6.620;2024-03-23T12:34:33;2.40;;;1.00;;
12367;SDS011;6248;49.812;6.620;2024-03-23T12:37:00;2.23;;;1.00;;
12367;SDS011;6248;49.812;6.620;2024-03-23T12:39:27;1.83;;;1.10;;
12367;SDS011;6248;49.812;6.620;2024-03-23T12:41:54;1.63;;;0.87;;
12367;SDS011;6248;49.812;6.620;2024-03-23T12:44:21;2.00;;;0.83;;
12367;SDS011;6248;49.812;6.620;2024-03-23T12:46:49;1.67;;;1.00;;
12367;SDS011;6248;49.812;6.620;2024-03-23T12:49:15;1.87;;;0.80;;
12367;SDS011;6248;49.812;6.620;2024-03-23T12:51:46;1.47;;;0.73;;
12367;SDS011;6248;49.812;6.620;2024-03-23T12:54:13;2.57;;;0.90;;
12367;SDS011;6248;49.812;6.620;2024-03-23T12:56:40;2.27;;;0.90;;
12367;SDS011;6248;49.812;6.620;2024-03-23T12:59:07;4.43;;;1.00;;
12367;SDS011;6248;49.812;6.620;2024-03-23T13:01:34;1.43;;;0.90;;
12367;SDS011;6248;49.812;6.620;2024-03-23T13:04:01;1.13;;;0.70;;
12367;SDS011;6248;49.812;6.620;2024-03-23T13:06:28;1.50;;;0.80;;
12367;SDS011;6248;49.812;6.620;2024-03-23T13:08:59;1.07;;;0.70;;
12367;SDS011;6248;49.812;6.620;2024-03-23T13:11:26;2.47;;;0.90;;
12367;SDS011;6248;49.812;6.620;2024-03-23T13:13:52;4.07;;;0.97;;
12367;SDS011;6248;49.812;6.620;2024-03-23T13:16:19;0.60;;;0.60;;
12367;SDS011;6248;49.812;6.620;2024-03-23T13:18:45;1.53;;;1.00;;
12367;SDS011;6248;49.812;6.620;2024-03-23T13:21:14;1.80;;;0.90;;
12367;SDS011;6248;49.812;6.620;2024-03-23T13:23:41;2.60;;;1.00;;
12367;SDS011;6248;49.812;6.620;2024-03-23T13:26:11;1.60;;;0.97;;
12367;SDS011;6248;49.812;6.620;2024-03-23T13:28:37;4.27;;;1.20;;
12367;SDS011;6248;49.812;6.620;2024-03-23T13:31:04;1.53;;;1.13;;
12367;SDS011;6248;49.812;6.620;2024-03-23T13:33:30;1.83;;;1.27;;
12367;SDS011;6248;49.812;6.620;2024-03-23T13:35:58;1.00;;;0.77;;
12367;SDS011;6248;49.812;6.620;2024-03-23T13:38:25;1.57;;;0.87;;
12367;SDS011;6248;49.812;6.620;2024-03-23T13:40:53;1.17;;;0.70;;
12367;SDS011;6248;49.812;6.620;2024-03-23T13:43:19;1.60;;;1.00;;
12367;SDS011;6248;49.812;6.620;2024-03-23T13:45:46;1.43;;;0.70;;
12367;SDS011;6248;49.812;6.620;2024-03-23T13:48:13;1.93;;;0.73;;
12367;SDS011;6248;49.812;6.620;2024-03-23T13:50:40;2.87;;;1.07;;
12367;SDS011;6248;49.812;6.620;2024-03-23T13:53:06;1.13;;;0.87;;
12367;SDS011;6248;49.812;6.620;2024-03-23T13:55:35;0.63;;;0.60;;
12367;SDS011;6248;49.812;6.620;2024-03-23T13:58:01;1.47;;;0.70;;
12367;SDS011;6248;49.812;6.620;2024-03-23T14:00:29;1.27;;;0.77;;
12367;SDS011;6248;49.812;6.620;2024-03-23T14:02:57;1.97;;;0.70;;
12367;SDS011;6248;49.812;6.620;2024-03-23T14:05:24;1.40;;;0.70;;
12367;SDS011;6248;49.812;6.620;2024-03-23T14:07:50;2.17;;;0.90;;
12367;SDS011;6248;49.812;6.620;2024-03-23T14:10:17;2.10;;;0.70;;
12367;SDS011;6248;49.812;6.620;2024-03-23T14:12:45;2.53;;;1.00;;
12367;SDS011;6248;49.812;6.620;2024-03-23T14:15:12;1.93;;;0.70;;
12367;SDS011;6248;49.812;6.620;2024-03-23T14:17:38;1.33;;;0.60;;
12367;SDS011;6248;49.812;6.620;2024-03-23T14:20:06;0.50;;;0.50;;
12367;SDS011;6248;49.812;6.620;2024-03-23T14:22:34;1.00;;;0.60;;
12367;SDS011;6248;49.812;6.620;2024-03-23T14:25:01;2.07;;;0.93;;
12367;SDS011;6248;49.812;6.620;2024-03-23T14:27:27;1.23;;;0.90;;
12367;SDS011;6248;49.812;6.620;2024-03-23T14:29:56;1.33;;;0.70;;
12367;SDS011;6248;49.812;6.620;2024-03-23T14:32:22;1.23;;;0.80;;
12367;SDS011;6248;49.812;6.620;2024-03-23T14:34:49;2.67;;;1.00;;
12367;SDS011;6248;49.812;6.620;2024-03-23T14:37:17;1.77;;;0.83;;
12367;SDS011;6248;49.812;6.620;2024-03-23T14:39:44;2.33;;;0.80;;
12367;SDS011;6248;49.812;6.620;2024-03-23T14:42:11;2.83;;;0.80;;
12367;SDS011;6248;49.812;6.620;2024-03-23T14:44:38;2.67;;;1.00;;
12367;SDS011;6248;49.812;6.620;2024-03-23T14:47:06;1.80;;;1.00;;
12367;SDS011;6248;49.812;6.620;2024-03-23T14:49:33;2.27;;;0.80;;
12367;SDS011;6248;49.812;6.620;2024-03-23T14:51:59;1.83;;;0.93;;
12367;SDS011;6248;49.812;6.620;2024-03-23T14:54:27;2.37;;;0.90;;
12367;SDS011;6248;49.812;6.620;2024-03-23T14:56:53;2.07;;;0.70;;
12367;SDS011;6248;49.812;6.620;2024-03-23T14:59:21;4.23;;;0.77;;
12367;SDS011;6248;49.812;6.620;2024-03-23T15:01:47;1.13;;;0.70;;
12367;SDS011;6248;49.812;6.620;2024-03-23T15:04:16;1.10;;;0.63;;
12367;SDS011;6248;49.812;6.620;2024-03-23T15:06:42;2.33;;;0.77;;
12367;SDS011;6248;49.812;6.620;2024-03-23T15:09:11;0.97;;;0.43;;
12367;SDS011;6248;49.812;6.620;2024-03-23T15:11:39;1.23;;;0.70;;
12367;SDS011;6248;49.812;6.620;2024-03-23T15:14:06;0.60;;;0.50;;
12367;SDS011;6248;49.812;6.620;2024-03-23T15:16:33;2.07;;;0.90;;
12367;SDS011;6248;49.812;6.620;2024-03-23T15:19:00;1.97;;;0.80;;
12367;SDS011;6248;49.812;6.620;2024-03-23T15:21:28;2.33;;;0.80;;
12367;SDS011;6248;49.812;6.620;2024-03-23T15:23:56;2.70;;;0.90;;
12367;SDS011;6248;49.812;6.620;2024-03-23T15:26:24;1.43;;;0.70;;
12367;SDS011;6248;49.812;6.620;2024-03-23T15:28:51;3.10;;;1.00;;
12367;SDS011;6248;49.812;6.620;2024-03-23T15:31:35;3.20;;;1.70;;
12367;SDS011;6248;49.812;6.620;2024-03-23T15:34:02;1.40;;;0.80;;
12367;SDS011;6248;49.812;6.620;2024-03-23T15:36:30;1.13;;;0.70;;
12367;SDS011;6248;49.812;6.620;2024-03-23T15:38:58;2.63;;;0.80;;
12367;SDS011;6248;49.812;6.620;2024-03-23T15:41:24;2.40;;;0.90;;
12367;SDS011;6248;49.812;6.620;2024-03-23T15:43:51;4.20;;;1.00;;
12367;SDS011;6248;49.812;6.620;2024-03-23T15:46:18;2.77;;;0.93;;
12367;SDS011;6248;49.812;6.620;2024-03-23T15:48:45;2.07;;;0.83;;
12367;SDS011;6248;49.812;6.620;2024-03-23T15:51:12;1.20;;;0.60;;
12367;SDS011;6248;49.812;6.620;2024-03-23T15:53:40;2.17;;;0.90;;
12367;SDS011;6248;49.812;6.620;2024-03-23T15:56:06;2.03;;;0.90;;
12367;SDS011;6248;49.812;6.620;2024-03-23T15:58:34;1.20;;;0.77;;
12367;SDS011;6248;49.812;6.620;2024-03-23T16:01:01;4.20;;;0.90;;
12367;SDS011;6248;49.812;6.620;2024-03-23T16:03:29;1.70;;;0.90;;
12367;SDS011;6248;49.812;6.620;2024-03-23T16:05:57;2.57;;;1.00;;
12367;SDS011;6248;49.812;6.620;2024-03-23T16:08:25;2.07;;;1.60;;
12367;SDS011;6248;49.812;6.620;2024-03-23T16:10:54;3.00;;;1.33;;
12367;SDS011;6248;49.812;6.620;2024-03-23T16:13:21;4.30;;;1.30;;
12367;SDS011;6248;49.812;6.620;2024-03-23T16:15:54;1.00;;;0.77;;
12367;SDS011;6248;49.812;6.620;2024-03-23T16:18:22;1.47;;;0.80;;
12367;SDS011;6248;49.812;6.620;2024-03-23T16:20:53;1.70;;;0.77;;
12367;SDS011;6248;49.812;6.620;2024-03-23T16:23:20;1.63;;;0.80;;
12367;SDS011;6248;49.812;6.620;2024-03-23T16:25:47;1.10;;;0.67;;
12367;SDS011;6248;49.812;6.620;2024-03-23T16:28:26;3.13;;;0.80;;
12367;SDS011;6248;49.812;6.620;2024-03-23T16:30:56;1.97;;;0.80;;
12367;SDS011;6248;49.812;6.620;2024-03-23T16:33:24;1.93;;;0.83;;
12367;SDS011;6248;49.812;6.620;2024-03-23T16:36:00;1.43;;;0.60;;
12367;SDS011;6248;49.812;6.620;2024-03-23T16:38:30;1.53;;;0.90;;
12367;SDS011;6248;49.812;6.620;2024-03-23T16:40:58;1.57;;;0.90;;
12367;SDS011;6248;49.812;6.620;2024-03-23T16:43:27;1.30;;;0.67;;
12367;SDS011;6248;49.812;6.620;2024-03-23T16:45:54;1.43;;;0.73;;
12367;SDS011;6248;49.812;6.620;2024-03-23T16:48:21;1.27;;;0.80;;
12367;SDS011;6248;49.812;6.620;2024-03-23T16:50:47;1.90;;;0.83;;
12367;SDS011;6248;49.812;6.620;2024-03-23T16:53:15;3.23;;;1.00;;
12367;SDS011;6248;49.812;6.620;2024-03-23T16:55:41;3.03;;;2.07;;
12367;SDS011;6248;49.812;6.620;2024-03-23T16:58:08;13.67;;;11.53;;
12367;SDS011;6248;49.812;6.620;2024-03-23T17:00:35;6.73;;;5.90;;
12367;SDS011;6248;49.812;6.620;2024-03-23T17:03:03;2.97;;;2.30;;
12367;SDS011;6248;49.812;6.620;2024-03-23T17:05:29;3.07;;;2.33;;
12367;SDS011;6248;49.812;6.620;2024-03-23T17:08:02;6.40;;;4.83;;
12367;SDS011;6248;49.812;6.620;2024-03-23T17:10:29;4.80;;;2.60;;
12367;SDS011;6248;49.812;6.620;2024-03-23T17:12:56;1.80;;;0.80;;